Terminal Aerodrome Forecast
Issued by NWS Tampa Bay Area, FL

Home | Current Version | Previous Version | Text Only | Print | Product List | Glossary On
Versions: 1 2 3 4 5 6 7 8 9 10 11 12 13 14 15 16 17 18 19 20 21 22 23 24 25 26 27 28 29 30
306
FTUS42 KTBW 270229 AAB
TAFTPA
TAF AMD
KTPA 270229Z 2702/2724 VRB04KT P6SM SCT050 SCT150
      TEMPO 2702/2704 VRB10G20KT 4SM -TSRA BKN035CB
     FM271400 15005KT P6SM FEW035 SCT250
     FM271800 24007KT P6SM VCTS SCT040CB SCT250=

USA.gov is the U.S. government's official web portal to all federal, state and local government web resources and services.